Time;durP1;ratioP1;P1;durP2;ratioP2;P2;SDS_P1;SDS_P2;PMS_P1;PMS_P2;Temp;Humidity;BMP_temperature;BMP_pressure;BME280_temperature;BME280_humidity;BME280_pressure;Samples;Min_cycle;Max_cycle;Signal;HPM_P1;HPM_P2
2024/01/29 00:00:39;;;;;;;33.28;13.93;;;3.30;99.90;;;;;;2103657;28;20486;-78
2024/01/29 00:01:39;;;;;;;30.92;13.35;;;3.20;99.90;;;;;;2101370;28;20027;-76
2024/01/29 00:02:40;;;;;;;28.70;13.23;;;3.20;99.90;;;;;;2095747;28;20034;-77
2024/01/29 00:03:40;;;;;;;30.58;13.07;;;3.20;99.90;;;;;;2099145;28;20097;-76
2024/01/29 00:04:41;;;;;;;29.02;12.90;;;3.10;99.90;;;;;;2102908;28;20042;-76
2024/01/29 00:05:41;;;;;;;32.35;13.55;;;3.20;99.90;;;;;;2095914;28;20037;-76
2024/01/29 00:06:42;;;;;;;31.38;12.98;;;3.20;99.90;;;;;;2093239;28;20032;-76
2024/01/29 00:07:42;;;;;;;28.20;12.80;;;3.20;99.90;;;;;;2101310;28;20023;-76
2024/01/29 00:08:43;;;;;;;28.05;12.68;;;3.20;99.90;;;;;;2096754;28;20040;-77
2024/01/29 00:09:45;;;;;;;25.40;12.80;;;3.20;99.90;;;;;;2107223;28;20023;-76
2024/01/29 00:10:46;;;;;;;28.67;12.65;;;3.10;99.90;;;;;;2094894;28;20033;-76
2024/01/29 00:11:46;;;;;;;26.00;12.93;;;3.20;99.90;;;;;;2101630;28;20062;-76
2024/01/29 00:12:47;;;;;;;25.98;12.48;;;3.20;99.90;;;;;;2100449;28;20008;-77
2024/01/29 00:13:47;;;;;;;28.92;12.60;;;3.30;99.90;;;;;;2093337;28;20407;-77
2024/01/29 00:14:48;;;;;;;25.50;12.30;;;3.30;99.90;;;;;;2095375;28;20036;-76
2024/01/29 00:15:48;;;;;;;29.60;12.63;;;3.30;99.90;;;;;;2095609;28;20433;-77
2024/01/29 00:16:49;;;;;;;26.05;12.50;;;3.30;99.90;;;;;;2097201;28;20591;-77
2024/01/29 00:17:50;;;;;;;25.98;13.20;;;3.40;99.90;;;;;;2097691;28;20020;-77
2024/01/29 00:18:50;;;;;;;29.48;13.05;;;3.40;99.90;;;;;;2101811;28;20521;-73
2024/01/29 00:19:51;;;;;;;26.77;12.40;;;3.40;99.90;;;;;;2094848;28;20082;-67
2024/01/29 00:20:51;;;;;;;27.77;13.23;;;3.40;99.90;;;;;;2098566;28;20042;-72
2024/01/29 00:21:52;;;;;;;23.38;12.50;;;3.40;99.90;;;;;;2104787;28;20040;-75
2024/01/29 00:22:52;;;;;;;24.52;12.40;;;3.40;99.90;;;;;;2098264;28;20101;-76
2024/01/29 00:23:54;;;;;;;23.05;11.93;;;3.40;99.90;;;;;;2098986;28;20039;-77
2024/01/29 00:24:54;;;;;;;27.92;12.48;;;3.30;99.90;;;;;;2102968;28;20107;-77
2024/01/29 00:25:55;;;;;;;25.05;12.63;;;3.30;99.90;;;;;;2098267;28;20016;-78
2024/01/29 00:26:55;;;;;;;28.80;12.68;;;3.20;99.90;;;;;;2098788;28;20024;-77
2024/01/29 00:27:56;;;;;;;27.85;12.50;;;3.20;99.90;;;;;;2100292;28;20036;-78
2024/01/29 00:28:56;;;;;;;23.40;12.35;;;3.20;99.90;;;;;;2094468;28;20114;-77
2024/01/29 00:29:58;;;;;;;25.10;13.10;;;3.10;99.90;;;;;;2099103;28;20054;-77
2024/01/29 00:30:58;;;;;;;27.08;13.02;;;3.10;99.90;;;;;;2094910;28;20112;-77
2024/01/29 00:31:59;;;;;;;32.95;13.05;;;3.10;99.90;;;;;;2088069;28;20043;-77
2024/01/29 00:32:59;;;;;;;24.02;12.65;;;3.10;99.90;;;;;;2093191;28;20345;-77
2024/01/29 00:34:00;;;;;;;29.60;12.93;;;3.10;99.90;;;;;;2096893;28;20701;-77
2024/01/29 00:35:01;;;;;;;25.67;13.10;;;3.10;99.90;;;;;;2084223;28;20577;-77
2024/01/29 00:36:01;;;;;;;28.33;13.32;;;3.00;99.90;;;;;;2092456;28;20032;-76
2024/01/29 00:37:03;;;;;;;29.33;13.13;;;3.00;99.90;;;;;;2100194;28;20024;-77
2024/01/29 00:38:04;;;;;;;28.25;12.90;;;3.00;99.90;;;;;;2093738;28;20016;-78
2024/01/29 00:39:09;;;;;;;27.52;12.75;;;3.00;99.90;;;;;;2105355;28;20056;-75
2024/01/29 00:40:10;;;;;;;23.95;12.88;;;3.00;99.90;;;;;;2100927;28;20020;-78
2024/01/29 00:41:11;;;;;;;27.08;12.48;;;3.00;99.90;;;;;;2093808;28;20044;-78
2024/01/29 00:42:11;;;;;;;28.83;12.88;;;3.00;99.90;;;;;;2099265;28;20033;-79
2024/01/29 00:43:12;;;;;;;26.08;12.05;;;3.00;99.90;;;;;;2101332;28;20026;-78
2024/01/29 00:44:13;;;;;;;29.13;13.15;;;3.00;99.90;;;;;;2094846;28;20021;-78
2024/01/29 00:45:13;;;;;;;27.73;13.32;;;3.00;99.90;;;;;;2099232;28;20024;-79
2024/01/29 00:46:15;;;;;;;28.25;12.95;;;3.00;99.90;;;;;;2101230;28;20030;-79
2024/01/29 00:47:16;;;;;;;27.25;12.73;;;3.00;99.90;;;;;;2093232;28;20029;-79
2024/01/29 00:48:17;;;;;;;28.98;13.32;;;2.90;99.90;;;;;;2101265;28;20058;-79
2024/01/29 00:49:17;;;;;;;26.23;12.95;;;3.00;99.90;;;;;;2093181;28;20028;-76
2024/01/29 00:50:18;;;;;;;28.80;13.13;;;3.00;99.90;;;;;;2101219;28;20020;-77
2024/01/29 00:51:18;;;;;;;27.52;13.23;;;3.00;99.90;;;;;;2096188;28;20033;-77
2024/01/29 00:52:19;;;;;;;25.00;12.88;;;3.00;99.90;;;;;;2099712;28;20059;-77
2024/01/29 00:53:19;;;;;;;26.40;12.95;;;3.00;99.90;;;;;;2095243;28;20024;-76
2024/01/29 00:54:20;;;;;;;30.55;13.52;;;3.00;99.90;;;;;;2097046;28;20044;-77
2024/01/29 00:55:21;;;;;;;27.50;13.25;;;2.90;99.90;;;;;;2096434;28;20796;-78
2024/01/29 00:56:21;;;;;;;29.08;13.52;;;2.90;99.90;;;;;;2090469;28;20033;-79
2024/01/29 00:57:22;;;;;;;30.85;13.35;;;2.90;99.90;;;;;;2103256;28;20662;-79
2024/01/29 00:58:22;;;;;;;33.67;13.85;;;2.90;99.90;;;;;;2100690;28;20048;-79
2024/01/29 00:59:23;;;;;;;26.80;13.02;;;2.90;99.90;;;;;;2101213;28;20028;-77
2024/01/29 01:00:23;;;;;;;28.88;14.18;;;2.90;99.90;;;;;;2098921;28;20027;-77
2024/01/29 01:01:24;;;;;;;27.92;14.00;;;2.80;99.90;;;;;;2096175;28;20504;-76
2024/01/29 01:02:24;;;;;;;30.55;14.23;;;2.80;99.90;;;;;;2100042;28;20032;-79
2024/01/29 01:03:25;;;;;;;29.48;14.00;;;2.80;99.90;;;;;;2093469;28;20033;-79
2024/01/29 01:04:25;;;;;;;27.83;13.65;;;2.80;99.90;;;;;;2097493;28;20036;-78
2024/01/29 01:05:26;;;;;;;25.30;13.52;;;2.70;99.90;;;;;;2100119;28;20035;-79
2024/01/29 01:06:26;;;;;;;28.40;14.15;;;2.70;99.90;;;;;;2096787;28;20043;-78
2024/01/29 01:07:27;;;;;;;27.67;13.88;;;2.70;99.90;;;;;;2100696;28;20578;-79
2024/01/29 01:08:28;;;;;;;28.05;13.35;;;2.60;99.90;;;;;;2097547;28;20029;-78
2024/01/29 01:09:28;;;;;;;30.55;13.88;;;2.60;99.90;;;;;;2096303;28;20055;-78
2024/01/29 01:10:29;;;;;;;29.50;14.55;;;2.60;99.90;;;;;;2101338;28;20027;-78
2024/01/29 01:11:29;;;;;;;31.30;14.43;;;2.60;99.90;;;;;;2101275;28;20489;-78
2024/01/29 01:12:30;;;;;;;30.30;14.13;;;2.60;99.90;;;;;;2093119;28;20032;-77
2024/01/29 01:13:30;;;;;;;28.48;14.20;;;2.60;99.90;;;;;;2094327;28;20123;-77
2024/01/29 01:14:31;;;;;;;27.05;14.63;;;2.60;99.90;;;;;;2101273;28;20047;-77
2024/01/29 01:15:32;;;;;;;30.38;13.82;;;2.60;99.90;;;;;;2092888;28;20032;-78
2024/01/29 01:16:32;;;;;;;30.05;13.80;;;2.50;99.90;;;;;;2093021;28;20066;-78
2024/01/29 01:17:33;;;;;;;26.38;13.98;;;2.50;99.90;;;;;;2097228;28;20043;-78
2024/01/29 01:18:33;;;;;;;28.48;14.00;;;2.50;99.90;;;;;;2098891;28;20026;-78
2024/01/29 01:19:34;;;;;;;30.70;14.20;;;2.40;99.90;;;;;;2100857;28;20042;-78
2024/01/29 01:20:34;;;;;;;29.77;14.15;;;2.40;99.90;;;;;;2093598;28;20028;-78
2024/01/29 01:21:35;;;;;;;28.65;14.20;;;2.40;99.90;;;;;;2103347;28;20038;-78
2024/01/29 01:22:35;;;;;;;30.67;14.10;;;2.40;99.90;;;;;;2103072;28;20038;-78
2024/01/29 01:23:37;;;;;;;25.60;14.00;;;2.30;99.90;;;;;;2104008;28;20040;-78
2024/01/29 01:24:37;;;;;;;29.88;14.05;;;2.30;99.90;;;;;;2102293;28;20027;-78
2024/01/29 01:25:38;;;;;;;26.95;13.90;;;2.30;99.90;;;;;;2092682;28;20035;-77
2024/01/29 01:26:38;;;;;;;30.83;14.38;;;2.20;99.90;;;;;;2093027;28;20028;-77
2024/01/29 01:27:39;;;;;;;33.15;14.20;;;2.20;99.90;;;;;;2100896;28;20056;-78
2024/01/29 01:28:39;;;;;;;29.58;13.80;;;2.30;99.90;;;;;;2092783;28;20077;-78
2024/01/29 01:29:40;;;;;;;28.35;13.90;;;2.30;99.90;;;;;;2092798;28;20036;-78
2024/01/29 01:30:40;;;;;;;26.55;14.13;;;2.30;99.90;;;;;;2092628;28;20032;-78
2024/01/29 01:31:41;;;;;;;26.95;13.32;;;2.20;99.90;;;;;;2087282;28;20075;-78
2024/01/29 01:32:41;;;;;;;29.25;14.05;;;2.30;99.90;;;;;;2092660;28;20043;-78
2024/01/29 01:33:42;;;;;;;28.23;13.80;;;2.20;99.90;;;;;;2105851;28;20215;-78
2024/01/29 01:34:42;;;;;;;33.95;14.95;;;2.20;99.90;;;;;;2100663;28;20101;-78
2024/01/29 01:35:43;;;;;;;34.40;14.32;;;2.30;99.90;;;;;;2093371;28;20032;-78
2024/01/29 01:36:43;;;;;;;32.80;14.00;;;2.30;99.90;;;;;;2100691;28;20039;-78
2024/01/29 01:37:44;;;;;;;32.30;14.13;;;2.30;99.90;;;;;;2100668;28;20024;-78
2024/01/29 01:38:45;;;;;;;34.20;14.70;;;2.20;99.90;;;;;;2094817;28;20056;-78
2024/01/29 01:39:45;;;;;;;27.10;13.85;;;2.30;99.90;;;;;;2099993;28;20036;-77
2024/01/29 01:40:46;;;;;;;28.13;13.77;;;2.20;99.90;;;;;;2097133;28;20051;-78
2024/01/29 01:41:50;;;;;;;29.02;14.45;;;2.20;99.90;;;;;;2096941;28;20036;-77
2024/01/29 01:42:51;;;;;;;26.48;13.70;;;2.20;99.90;;;;;;2101132;28;20027;-76
2024/01/29 01:43:51;;;;;;;33.03;14.43;;;2.20;99.90;;;;;;2093666;28;20067;-76
2024/01/29 01:44:52;;;;;;;28.27;14.40;;;2.20;99.90;;;;;;2102359;28;20073;-78
2024/01/29 01:46:17;;;;;;;31.17;14.20;;;2.20;99.90;;;;;;2102819;28;20028;-77
2024/01/29 01:47:18;;;;;;;32.65;14.23;;;2.20;99.90;;;;;;2101740;28;20020;-78
2024/01/29 01:48:18;;;;;;;30.27;14.20;;;2.20;99.90;;;;;;2095027;28;20477;-78
2024/01/29 01:49:21;;;;;;;30.88;14.30;;;2.20;99.90;;;;;;2094671;28;20028;-79
2024/01/29 01:50:21;;;;;;;30.85;14.55;;;2.20;99.90;;;;;;2102577;28;20081;-77
2024/01/29 01:51:22;;;;;;;27.77;13.85;;;2.20;99.90;;;;;;2094386;28;20033;-78
2024/01/29 01:52:23;;;;;;;27.48;14.02;;;2.20;99.90;;;;;;2102036;28;20021;-79
2024/01/29 01:53:25;;;;;;;28.75;13.98;;;2.20;99.90;;;;;;2102954;28;20024;-78
2024/01/29 01:54:25;;;;;;;28.42;13.40;;;2.20;99.90;;;;;;2095257;28;20368;-78
2024/01/29 01:55:27;;;;;;;30.77;13.75;;;2.20;99.90;;;;;;2106119;28;20039;-79
2024/01/29 01:56:28;;;;;;;28.83;14.25;;;2.20;99.90;;;;;;2102058;28;20047;-79
2024/01/29 01:57:29;;;;;;;30.63;14.23;;;2.20;99.90;;;;;;2100703;28;20028;-78
2024/01/29 01:58:32;;;;;;;28.55;14.02;;;2.20;99.90;;;;;;2100141;28;20039;-79
2024/01/29 01:59:35;;;;;;;29.10;13.60;;;2.20;99.90;;;;;;2102478;28;20065;-77
2024/01/29 02:00:36;;;;;;;30.42;13.68;;;2.20;99.90;;;;;;2098472;28;20074;-78
2024/01/29 02:01:38;;;;;;;28.10;14.35;;;2.20;99.90;;;;;;2097859;28;20027;-78
2024/01/29 02:02:40;;;;;;;31.65;14.10;;;2.20;99.90;;;;;;2096345;28;20086;-78
2024/01/29 02:03:42;;;;;;;32.95;14.68;;;2.20;99.90;;;;;;2095952;28;20032;-77
2024/01/29 02:04:43;;;;;;;29.00;13.52;;;2.20;99.90;;;;;;2095511;28;20048;-78
2024/01/29 02:05:45;;;;;;;30.75;13.98;;;2.20;99.90;;;;;;2094724;28;20024;-78
2024/01/29 02:06:46;;;;;;;29.92;14.23;;;2.20;99.90;;;;;;2100076;28;20032;-78
2024/01/29 02:07:47;;;;;;;28.25;14.48;;;2.10;99.90;;;;;;2099308;28;20020;-78
2024/01/29 02:08:47;;;;;;;30.50;14.70;;;2.20;99.90;;;;;;2095933;28;20440;-78
2024/01/29 02:09:48;;;;;;;32.10;14.60;;;2.10;99.90;;;;;;2103104;28;20061;-78
2024/01/29 02:10:50;;;;;;;28.40;14.45;;;2.10;99.90;;;;;;2102568;28;20119;-77
2024/01/29 02:11:50;;;;;;;31.50;14.45;;;2.10;99.90;;;;;;2098833;28;20097;-78
2024/01/29 02:12:52;;;;;;;32.83;15.10;;;2.20;99.90;;;;;;2094978;28;20449;-78
2024/01/29 02:13:53;;;;;;;29.90;14.23;;;2.10;99.90;;;;;;2103235;28;20118;-78
2024/01/29 02:14:53;;;;;;;29.38;14.20;;;2.10;99.90;;;;;;2099274;28;20028;-79
2024/01/29 02:15:54;;;;;;;26.75;13.80;;;2.10;99.90;;;;;;2104526;28;20036;-77
2024/01/29 02:16:55;;;;;;;29.88;14.68;;;2.10;99.90;;;;;;2105912;28;20039;-78
2024/01/29 02:17:55;;;;;;;28.02;14.93;;;2.10;99.90;;;;;;2095493;28;20029;-77
2024/01/29 02:18:56;;;;;;;29.40;13.95;;;2.10;99.90;;;;;;2103174;28;20028;-77
2024/01/29 02:19:56;;;;;;;28.58;14.20;;;2.10;99.90;;;;;;2104134;28;20040;-77
2024/01/29 02:20:57;;;;;;;30.90;14.90;;;2.10;99.90;;;;;;2106360;28;20067;-77
2024/01/29 02:21:57;;;;;;;28.92;14.30;;;2.10;99.90;;;;;;2094433;28;20040;-77
2024/01/29 02:22:58;;;;;;;28.52;14.48;;;2.10;99.90;;;;;;2102558;28;20028;-78
2024/01/29 02:23:58;;;;;;;27.63;13.57;;;2.10;99.90;;;;;;2102098;28;20027;-76
2024/01/29 02:24:59;;;;;;;31.02;14.38;;;2.10;99.90;;;;;;2099231;28;20032;-77
2024/01/29 02:25:59;;;;;;;31.08;14.05;;;2.20;99.90;;;;;;2101524;28;20047;-78
2024/01/29 02:27:00;;;;;;;28.45;14.45;;;2.20;99.90;;;;;;2101682;28;20280;-76
2024/01/29 02:28:01;;;;;;;30.05;14.35;;;2.20;99.90;;;;;;2099726;28;20028;-78
2024/01/29 02:29:01;;;;;;;27.05;14.35;;;2.20;99.90;;;;;;2100990;28;20033;-77
2024/01/29 02:30:04;;;;;;;29.10;14.50;;;2.20;99.90;;;;;;2102364;28;20023;-76
2024/01/29 02:31:05;;;;;;;32.85;14.45;;;2.10;99.90;;;;;;2101423;28;20047;-76
2024/01/29 02:32:05;;;;;;;28.70;15.15;;;2.10;99.90;;;;;;2093908;28;20060;-78
2024/01/29 02:33:06;;;;;;;27.95;14.32;;;2.10;99.90;;;;;;2101316;28;20032;-77
2024/01/29 02:34:06;;;;;;;28.58;14.45;;;2.10;99.90;;;;;;2103079;28;20064;-77
2024/01/29 02:35:07;;;;;;;33.35;14.65;;;2.20;99.90;;;;;;2102530;28;20032;-77
2024/01/29 02:36:08;;;;;;;28.25;13.85;;;2.20;99.90;;;;;;2097459;28;20040;-78
2024/01/29 02:37:08;;;;;;;27.13;14.43;;;2.10;99.90;;;;;;2102370;28;20090;-78
2024/01/29 02:38:09;;;;;;;29.52;14.73;;;2.10;99.90;;;;;;2101514;28;20032;-77
2024/01/29 02:39:09;;;;;;;29.33;14.50;;;2.10;99.90;;;;;;2099594;28;20103;-78
2024/01/29 02:40:10;;;;;;;29.52;14.43;;;2.10;99.90;;;;;;2101564;28;20035;-78
2024/01/29 02:41:11;;;;;;;28.67;15.23;;;2.00;99.90;;;;;;2095957;28;20028;-78
2024/01/29 02:42:11;;;;;;;28.35;14.10;;;2.00;99.90;;;;;;2096899;28;20028;-79
2024/01/29 02:43:12;;;;;;;28.45;14.68;;;2.00;99.90;;;;;;2097945;28;20032;-78
2024/01/29 02:44:12;;;;;;;31.70;14.65;;;2.00;99.90;;;;;;2102175;28;20514;-78
2024/01/29 02:45:13;;;;;;;30.25;14.15;;;2.00;99.90;;;;;;2097713;28;20048;-78
2024/01/29 02:46:14;;;;;;;26.77;13.82;;;2.00;99.90;;;;;;2099249;28;20033;-78
2024/01/29 02:47:17;;;;;;;28.52;15.00;;;2.00;99.90;;;;;;2102698;28;20110;-78
2024/01/29 02:48:17;;;;;;;26.67;14.05;;;2.00;99.90;;;;;;2094264;28;20036;-78
2024/01/29 02:49:18;;;;;;;26.77;14.55;;;2.00;99.90;;;;;;2094298;28;20036;-79
2024/01/29 02:50:19;;;;;;;28.48;14.65;;;2.00;99.90;;;;;;2094169;28;20032;-78
2024/01/29 02:51:20;;;;;;;24.83;13.52;;;2.00;99.90;;;;;;2099842;28;20502;-77
2024/01/29 02:52:21;;;;;;;26.42;14.52;;;2.00;99.90;;;;;;2096980;28;20054;-76
2024/01/29 02:53:21;;;;;;;29.13;14.13;;;2.00;99.90;;;;;;2102632;28;20082;-77
2024/01/29 02:54:21;;;;;;;24.88;13.93;;;2.10;99.90;;;;;;2098757;28;20485;-77
2024/01/29 02:55:22;;;;;;;27.48;14.93;;;2.10;99.90;;;;;;2095426;28;20044;-77
2024/01/29 02:56:22;;;;;;;30.38;14.63;;;2.00;99.90;;;;;;2105758;28;20093;-77
2024/01/29 02:57:24;;;;;;;29.50;14.70;;;2.10;99.90;;;;;;2103691;28;20147;-77
2024/01/29 02:58:24;;;;;;;31.08;14.60;;;2.10;99.90;;;;;;2097723;28;20597;-77
2024/01/29 02:59:25;;;;;;;27.25;14.13;;;2.10;99.90;;;;;;2096972;28;20028;-77
2024/01/29 03:00:25;;;;;;;30.00;14.85;;;2.10;99.90;;;;;;2098901;28;20082;-77
2024/01/29 03:01:26;;;;;;;32.38;14.98;;;2.10;99.90;;;;;;2101071;28;20039;-77
2024/01/29 03:02:26;;;;;;;26.50;13.88;;;2.10;99.90;;;;;;2095039;28;20029;-77
2024/01/29 03:03:27;;;;;;;28.50;14.43;;;2.10;99.90;;;;;;2102033;28;20078;-77
2024/01/29 03:04:27;;;;;;;26.73;13.95;;;2.10;99.90;;;;;;2099882;28;20028;-77
2024/01/29 03:05:28;;;;;;;28.33;14.65;;;2.10;99.90;;;;;;2095911;28;20025;-78
2024/01/29 03:06:28;;;;;;;28.55;14.52;;;2.10;99.90;;;;;;2094147;28;20100;-77
2024/01/29 03:07:29;;;;;;;30.48;14.02;;;2.10;99.90;;;;;;2102396;28;20031;-77
2024/01/29 03:08:29;;;;;;;28.38;14.07;;;2.10;99.90;;;;;;2100796;28;20035;-77
2024/01/29 03:09:30;;;;;;;27.23;14.55;;;2.10;99.90;;;;;;2095384;28;20115;-78
2024/01/29 03:10:30;;;;;;;25.80;14.35;;;2.10;99.90;;;;;;2097689;28;20016;-78
2024/01/29 03:11:31;;;;;;;29.10;14.32;;;2.10;99.90;;;;;;2104006;28;20023;-77
2024/01/29 03:12:31;;;;;;;28.02;14.00;;;2.10;99.90;;;;;;2098613;28;20596;-77
2024/01/29 03:13:32;;;;;;;28.60;14.65;;;2.10;99.90;;;;;;2094007;28;20029;-77
2024/01/29 03:14:32;;;;;;;26.23;14.60;;;2.10;99.90;;;;;;2099603;28;20026;-77
2024/01/29 03:15:33;;;;;;;24.88;13.57;;;2.20;99.90;;;;;;2105416;28;20023;-77
2024/01/29 03:16:34;;;;;;;24.65;14.05;;;2.10;99.90;;;;;;2099150;28;20028;-77
2024/01/29 03:17:34;;;;;;;24.85;13.77;;;2.10;99.90;;;;;;2093988;28;20477;-77
2024/01/29 03:18:35;;;;;;;28.42;14.25;;;2.20;99.90;;;;;;2093892;28;20036;-75
2024/01/29 03:19:36;;;;;;;26.55;14.43;;;2.20;99.90;;;;;;2093946;28;20037;-77
2024/01/29 03:20:36;;;;;;;29.95;15.00;;;2.30;99.90;;;;;;2093909;28;20414;-77
2024/01/29 03:21:37;;;;;;;29.80;14.57;;;2.30;99.90;;;;;;2101622;28;20764;-77
2024/01/29 03:22:37;;;;;;;31.35;14.48;;;2.30;99.90;;;;;;2093838;28;20653;-77
2024/01/29 03:23:38;;;;;;;26.65;14.30;;;2.30;99.90;;;;;;2106025;28;20035;-77
2024/01/29 03:24:38;;;;;;;25.70;14.20;;;2.30;99.90;;;;;;2105498;28;20031;-77
2024/01/29 03:25:39;;;;;;;25.80;13.90;;;2.30;99.90;;;;;;2095266;28;20032;-77
2024/01/29 03:26:39;;;;;;;28.42;14.20;;;2.30;99.90;;;;;;2101539;28;20036;-77
2024/01/29 03:27:40;;;;;;;29.27;14.45;;;2.30;99.90;;;;;;2102084;28;20047;-77
2024/01/29 03:28:40;;;;;;;25.08;14.40;;;2.30;99.90;;;;;;2095090;28;20511;-75
2024/01/29 03:29:41;;;;;;;29.73;14.52;;;2.30;99.90;;;;;;2100473;28;20043;-78
2024/01/29 03:30:41;;;;;;;32.15;14.90;;;2.30;99.90;;;;;;2101632;28;20031;-78
2024/01/29 03:31:42;;;;;;;27.58;14.43;;;2.30;99.90;;;;;;2089673;28;20024;-78
2024/01/29 03:32:43;;;;;;;33.03;15.43;;;2.30;99.90;;;;;;2101104;28;20038;-77
2024/01/29 03:33:43;;;;;;;34.05;15.93;;;2.20;99.90;;;;;;2105509;28;20031;-79
2024/01/29 03:34:44;;;;;;;26.88;14.57;;;2.30;99.90;;;;;;2096474;28;20184;-77
2024/01/29 03:35:44;;;;;;;29.08;14.73;;;2.20;99.90;;;;;;2093841;28;20017;-78
2024/01/29 03:36:46;;;;;;;29.88;14.70;;;2.20;99.90;;;;;;2093762;28;20025;-78
2024/01/29 03:37:46;;;;;;;33.53;15.07;;;2.20;99.90;;;;;;2096598;28;20502;-78
2024/01/29 03:38:47;;;;;;;30.40;14.68;;;2.20;99.90;;;;;;2098855;28;20085;-76
2024/01/29 03:39:47;;;;;;;27.38;14.95;;;2.20;99.90;;;;;;2101886;28;20033;-77
2024/01/29 03:40:48;;;;;;;28.63;14.70;;;2.20;99.90;;;;;;2093879;28;20028;-77
2024/01/29 03:41:48;;;;;;;29.90;14.85;;;2.10;99.90;;;;;;2095836;28;20124;-77
2024/01/29 03:42:49;;;;;;;30.77;15.63;;;2.10;99.90;;;;;;2104159;28;20016;-78
2024/01/29 03:43:49;;;;;;;27.92;15.10;;;2.10;99.90;;;;;;2097463;28;20070;-77
2024/01/29 03:44:50;;;;;;;28.85;16.02;;;2.10;99.90;;;;;;2097995;28;20097;-77
2024/01/29 03:45:51;;;;;;;29.48;15.13;;;2.00;99.90;;;;;;2101331;28;20059;-78
2024/01/29 03:46:52;;;;;;;28.45;15.13;;;2.00;99.90;;;;;;2097068;28;20040;-77
2024/01/29 03:47:52;;;;;;;28.85;15.20;;;1.90;99.90;;;;;;2096443;28;20035;-78
2024/01/29 03:48:53;;;;;;;30.13;15.02;;;1.90;99.90;;;;;;2098520;28;20223;-77
2024/01/29 03:49:53;;;;;;;30.13;15.38;;;1.90;99.90;;;;;;2101068;28;20036;-77
2024/01/29 03:50:54;;;;;;;29.75;15.43;;;1.90;99.90;;;;;;2101836;28;23536;-78
2024/01/29 03:51:54;;;;;;;27.23;15.07;;;1.90;99.90;;;;;;2098742;28;20135;-78
2024/01/29 03:52:55;;;;;;;29.25;14.80;;;1.90;99.90;;;;;;2102055;28;20039;-77
2024/01/29 03:53:56;;;;;;;31.63;15.15;;;1.90;99.90;;;;;;2101923;28;20038;-78
2024/01/29 03:54:56;;;;;;;30.20;14.77;;;1.90;99.90;;;;;;2093695;28;20103;-77
2024/01/29 03:55:57;;;;;;;29.23;14.73;;;1.90;99.90;;;;;;2093405;28;20119;-77
2024/01/29 03:56:57;;;;;;;30.95;14.93;;;1.90;99.90;;;;;;2093515;28;20226;-76
2024/01/29 03:57:58;;;;;;;31.02;15.05;;;2.00;99.90;;;;;;2101858;28;20043;-77
2024/01/29 03:58:58;;;;;;;27.77;14.60;;;2.00;99.90;;;;;;2098367;28;20021;-78
2024/01/29 03:59:59;;;;;;;31.48;15.02;;;1.90;99.90;;;;;;2096596;28;20028;-77
2024/01/29 04:00:59;;;;;;;27.92;15.07;;;1.90;99.90;;;;;;2101324;28;20974;-77
2024/01/29 04:02:01;;;;;;;27.02;14.65;;;1.90;99.90;;;;;;2099028;28;20031;-77
2024/01/29 04:03:03;;;;;;;26.15;14.20;;;2.00;99.90;;;;;;2095962;28;20438;-77
2024/01/29 04:04:04;;;;;;;33.85;15.52;;;2.00;99.90;;;;;;2093685;28;20016;-77
2024/01/29 04:05:05;;;;;;;30.90;15.45;;;2.00;99.90;;;;;;2093552;28;20115;-77
2024/01/29 04:06:07;;;;;;;26.88;15.00;;;2.00;99.90;;;;;;2100034;28;20171;-76
2024/01/29 04:07:08;;;;;;;31.17;14.75;;;2.00;99.90;;;;;;2094051;28;20025;-78
2024/01/29 04:08:08;;;;;;;27.88;14.35;;;2.10;99.90;;;;;;2104833;28;20027;-78
2024/01/29 04:09:09;;;;;;;29.92;14.27;;;2.10;99.90;;;;;;2101427;28;20055;-77
2024/01/29 04:10:09;;;;;;;28.00;14.63;;;2.20;99.90;;;;;;2095125;28;20029;-77
2024/01/29 04:11:10;;;;;;;28.73;14.98;;;2.20;99.90;;;;;;2104982;28;20039;-78
2024/01/29 04:12:11;;;;;;;27.27;14.30;;;2.20;99.90;;;;;;2097969;28;20024;-77
2024/01/29 04:13:11;;;;;;;27.75;14.50;;;2.20;99.90;;;;;;2093657;28;20024;-78
2024/01/29 04:14:12;;;;;;;28.52;14.18;;;2.20;99.90;;;;;;2093390;28;20027;-77
2024/01/29 04:15:13;;;;;;;27.52;13.77;;;2.20;99.90;;;;;;2093305;28;20043;-76
2024/01/29 04:16:13;;;;;;;27.30;13.65;;;2.20;99.90;;;;;;2101020;28;20035;-76
2024/01/29 04:17:14;;;;;;;24.30;13.40;;;2.20;99.90;;;;;;2097799;28;20062;-77
2024/01/29 04:18:14;;;;;;;34.83;14.57;;;2.20;99.90;;;;;;2093198;28;20509;-78
2024/01/29 04:19:15;;;;;;;28.10;14.02;;;2.20;99.90;;;;;;2101046;28;20027;-76
2024/01/29 04:20:15;;;;;;;29.88;14.82;;;2.20;99.90;;;;;;2093184;28;20020;-76
2024/01/29 04:21:16;;;;;;;26.73;13.73;;;2.20;99.90;;;;;;2093341;28;20536;-78
2024/01/29 04:22:16;;;;;;;26.48;14.40;;;2.20;99.90;;;;;;2093646;28;20090;-77
2024/01/29 04:23:17;;;;;;;28.30;14.77;;;2.20;99.90;;;;;;2097423;28;20042;-77
2024/01/29 04:24:18;;;;;;;29.42;14.63;;;2.20;99.90;;;;;;2100597;28;20078;-78
2024/01/29 04:25:18;;;;;;;31.20;15.32;;;2.20;99.90;;;;;;2100890;28;20020;-78
2024/01/29 04:26:19;;;;;;;28.63;14.00;;;2.20;99.90;;;;;;2094133;28;20039;-78
2024/01/29 04:27:19;;;;;;;28.42;14.15;;;2.20;99.90;;;;;;2100973;28;20059;-77
2024/01/29 04:28:20;;;;;;;29.25;15.65;;;2.20;99.90;;;;;;2104847;28;20268;-78
2024/01/29 04:29:20;;;;;;;25.65;14.40;;;2.20;99.90;;;;;;2101164;28;20529;-77
2024/01/29 04:30:21;;;;;;;29.33;14.95;;;2.20;99.90;;;;;;2093082;28;20036;-75
2024/01/29 04:31:21;;;;;;;28.95;15.10;;;2.10;99.90;;;;;;2101054;28;20051;-77
2024/01/29 04:32:22;;;;;;;28.52;15.10;;;2.20;99.90;;;;;;2090500;28;20033;-77
2024/01/29 04:33:23;;;;;;;29.70;15.45;;;2.10;99.90;;;;;;2092647;28;20028;-78
2024/01/29 04:34:23;;;;;;;32.30;15.30;;;2.10;99.90;;;;;;2093168;28;20032;-78
2024/01/29 04:35:24;;;;;;;27.10;14.90;;;2.10;99.90;;;;;;2100842;28;20138;-77
2024/01/29 04:36:24;;;;;;;30.45;14.55;;;2.10;99.90;;;;;;2093944;28;20032;-78
2024/01/29 04:37:25;;;;;;;28.50;14.30;;;2.20;99.90;;;;;;2100160;28;20646;-78
2024/01/29 04:38:25;;;;;;;30.15;14.82;;;2.20;99.90;;;;;;2093183;28;20040;-78
2024/01/29 04:39:26;;;;;;;25.77;13.63;;;2.20;99.90;;;;;;2094485;28;20031;-78
2024/01/29 04:40:26;;;;;;;35.70;15.93;;;2.20;99.90;;;;;;2099801;28;20051;-72
2024/01/29 04:41:27;;;;;;;30.52;14.05;;;2.20;99.90;;;;;;2100876;28;20669;-72
2024/01/29 04:42:27;;;;;;;30.15;13.98;;;2.20;99.90;;;;;;2094964;28;20028;-72
2024/01/29 04:43:28;;;;;;;28.10;14.25;;;2.20;99.90;;;;;;2099222;28;20074;-72
2024/01/29 04:44:28;;;;;;;30.40;15.20;;;2.30;99.90;;;;;;2101235;28;20031;-72
2024/01/29 04:45:29;;;;;;;31.02;14.88;;;2.20;99.90;;;;;;2097474;28;20023;-72
2024/01/29 04:46:30;;;;;;;29.10;15.60;;;2.20;99.90;;;;;;2100138;28;20036;-72
2024/01/29 04:47:31;;;;;;;29.52;14.70;;;2.20;99.90;;;;;;2103771;28;20079;-73
2024/01/29 04:48:31;;;;;;;30.30;14.57;;;2.20;99.90;;;;;;2100712;28;20511;-71
2024/01/29 04:49:32;;;;;;;30.45;14.32;;;2.20;99.90;;;;;;2095624;28;20028;-72
2024/01/29 04:50:32;;;;;;;27.75;14.35;;;2.20;99.90;;;;;;2098999;28;20021;-72
2024/01/29 04:51:33;;;;;;;27.60;14.63;;;2.20;99.90;;;;;;2096443;28;20036;-72
2024/01/29 04:52:33;;;;;;;27.45;14.00;;;2.20;99.90;;;;;;2099213;28;20028;-72
2024/01/29 04:53:35;;;;;;;27.60;15.00;;;2.20;99.90;;;;;;2095953;28;20031;-72
2024/01/29 04:54:36;;;;;;;26.48;13.40;;;2.30;99.90;;;;;;2097041;28;20047;-73
2024/01/29 04:55:36;;;;;;;26.75;13.15;;;2.30;99.90;;;;;;2099943;28;20039;-72
2024/01/29 04:56:37;;;;;;;28.20;14.50;;;2.30;99.90;;;;;;2098439;28;20071;-74
2024/01/29 04:57:37;;;;;;;24.92;13.75;;;2.30;99.90;;;;;;2099908;28;20036;-72
2024/01/29 04:58:38;;;;;;;26.70;13.38;;;2.30;99.90;;;;;;2095260;28;20031;-75
2024/01/29 04:59:39;;;;;;;27.77;13.25;;;2.30;99.90;;;;;;2095696;28;20020;-70
2024/01/29 05:00:39;;;;;;;30.30;15.75;;;2.30;99.90;;;;;;2099204;28;20028;-71
2024/01/29 05:01:40;;;;;;;29.88;15.45;;;2.30;99.90;;;;;;2098814;28;20039;-72
2024/01/29 05:02:40;;;;;;;31.52;14.50;;;2.30;99.90;;;;;;2099323;28;20060;-71
2024/01/29 05:03:41;;;;;;;29.00;14.57;;;2.30;99.90;;;;;;2099410;28;20012;-71
2024/01/29 05:04:41;;;;;;;31.42;15.80;;;2.30;99.90;;;;;;2098946;28;20077;-73
2024/01/29 05:05:42;;;;;;;28.08;14.32;;;2.30;99.90;;;;;;2099321;28;20027;-73
2024/01/29 05:06:42;;;;;;;28.10;13.68;;;2.40;99.90;;;;;;2098411;28;20031;-72
2024/01/29 05:07:43;;;;;;;25.60;13.98;;;2.50;99.90;;;;;;2101522;28;20034;-72
2024/01/29 05:08:44;;;;;;;24.90;12.85;;;2.60;99.90;;;;;;2096451;28;20074;-73
2024/01/29 05:09:44;;;;;;;24.45;13.68;;;2.60;99.90;;;;;;2105225;28;20108;-70
2024/01/29 05:10:45;;;;;;;24.13;12.75;;;2.60;99.90;;;;;;2103663;28;20515;-72
2024/01/29 05:11:46;;;;;;;32.38;16.83;;;2.60;99.90;;;;;;2095478;28;20032;-72